Flight Briefing for CPX794

Departure Arrival
Aeropuerto Internacional Ezeiza/Ministro Pistarini (SAEZ)
Click to view FAA NOTAMS
Miami International Airport (KMIA)
Click to view FAA NOTAMS
Departure Time Arrival Time
N/A N/A
Aircraft Distance
MD-11SF 3849nm
Departure METAR Arrival METAR
SAEZ 180600Z 11002KT 8000 NSC 22/21 Q1010 NOSIG KMIA 180553Z 14006KT 10SM FEW030 SCT050 SCT065 24/24 A3004 RMK AO2 SLP173 T02440239 10250 20239 58002
Suggested Route
UCA UA301 URSUS FLIPR6


View recent IFR Routes data
Notes



Charts and Procedures

Charts for SAEZ
No chart available
Charts for KMIA
No chart available

Ventusky Weather